KBCB/BCB METAR and TAF weather

Enter ICAO airport designator
Station Type Date Time Source
KBCB METAR 2018/12/12 23:15 UTC NOAA

KBCB 122315Z AUTO 00000KT 10SM CLR M01/M04 A3014 RMK AO2 T10061036


Station Type Date Time Source
KBCB Decoded METAR 2018/12/12 23:15 UTC NOAA

Virginia Tech Airport, VA, United States (KBCB) 37-13N 080-25W
Dec 12, 2018 - 06:15 PM EST / 2018.12.12 2315 UTC
Wind: Calm:0
Visibility: 10 mile(s):0
Sky conditions: clear
Temperature: 30.9 F (-0.6 C)
Dew Point: 25.5 F (-3.6 C)
Relative Humidity: 80%
Pressure (altimeter): 30.14 in. Hg (1020 hPa)
ob: KBCB 122315Z AUTO 00000KT 10SM CLR M01/M04 A3014 RMK AO2 T10061036
cycle: 23

Station Type Date Time Source
KBCB TAF 2018/12/12 18:28 UTC NOAA

TAF KBCB 121726Z 1218/1318 20005KT P6SM BKN150
FM122300 VRB03KT P6SM BKN045
FM130400 00000KT P6SM BKN030
FM130600 00000KT P6SM BKN015
FM131200 21007KT P6SM BKN035


Example: see airport list